sensor_id;sensor_type;location;lat;lon;timestamp;pressure;altitude;pressure_sealevel;temperature;humidity
46448;BME280;32145;50.390;30.778;2022-11-15T00:01:56;100974.41;;;3.45;78.00
46448;BME280;32145;50.390;30.778;2022-11-15T00:04:39;100979.75;;;3.45;78.05
46448;BME280;32145;50.390;30.778;2022-11-15T00:07:25;100976.09;;;3.46;78.29
46448;BME280;32145;50.390;30.778;2022-11-15T00:10:09;100975.09;;;3.47;78.15
46448;BME280;32145;50.390;30.778;2022-11-15T00:12:53;100973.25;;;3.48;78.01
46448;BME280;32145;50.390;30.778;2022-11-15T00:15:38;100968.41;;;3.52;78.08
46448;BME280;32145;50.390;30.778;2022-11-15T00:18:23;100972.75;;;3.53;78.15
46448;BME280;32145;50.390;30.778;2022-11-15T00:21:10;100954.00;;;3.53;78.15
46448;BME280;32145;50.390;30.778;2022-11-15T00:23:55;100953.00;;;3.54;78.03
46448;BME280;32145;50.390;30.778;2022-11-15T00:26:39;100946.66;;;3.55;78.41
46448;BME280;32145;50.390;30.778;2022-11-15T00:29:23;100947.31;;;3.57;78.16
46448;BME280;32145;50.390;30.778;2022-11-15T00:32:08;100938.09;;;3.59;78.16
46448;BME280;32145;50.390;30.778;2022-11-15T00:34:52;100933.59;;;3.60;78.21
46448;BME280;32145;50.390;30.778;2022-11-15T00:37:36;100935.25;;;3.61;77.78
46448;BME280;32145;50.390;30.778;2022-11-15T00:40:21;100926.56;;;3.59;78.16
46448;BME280;32145;50.390;30.778;2022-11-15T00:43:05;100922.84;;;3.60;77.84
46448;BME280;32145;50.390;30.778;2022-11-15T00:45:49;100921.34;;;3.57;77.78
46448;BME280;32145;50.390;30.778;2022-11-15T00:48:33;100914.31;;;3.56;77.79
46448;BME280;32145;50.390;30.778;2022-11-15T00:51:17;100914.47;;;3.55;77.78
46448;BME280;32145;50.390;30.778;2022-11-15T00:54:01;100910.78;;;3.56;77.81
46448;BME280;32145;50.390;30.778;2022-11-15T00:56:46;100909.78;;;3.57;78.07
46448;BME280;32145;50.390;30.778;2022-11-15T00:59:30;100907.09;;;3.57;77.83
46448;BME280;32145;50.390;30.778;2022-11-15T01:02:14;100896.34;;;3.57;77.82
46448;BME280;32145;50.390;30.778;2022-11-15T01:04:58;100899.19;;;3.55;77.69
46448;BME280;32145;50.390;30.778;2022-11-15T01:07:42;100910.78;;;3.56;77.81
46448;BME280;32145;50.390;30.778;2022-11-15T01:10:26;100913.31;;;3.57;77.68
46448;BME280;32145;50.390;30.778;2022-11-15T01:13:12;100906.09;;;3.58;77.62
46448;BME280;32145;50.390;30.778;2022-11-15T01:15:55;100904.41;;;3.57;77.62
46448;BME280;32145;50.390;30.778;2022-11-15T01:18:39;100907.09;;;3.57;77.71
46448;BME280;32145;50.390;30.778;2022-11-15T01:21:23;100883.13;;;3.55;77.72
46448;BME280;32145;50.390;30.778;2022-11-15T01:24:08;100889.31;;;3.56;77.58
46448;BME280;32145;50.390;30.778;2022-11-15T01:26:55;100887.97;;;3.52;77.35
46448;BME280;32145;50.390;30.778;2022-11-15T01:29:41;100872.19;;;3.48;77.68
46448;BME280;32145;50.390;30.778;2022-11-15T01:32:25;100867.84;;;3.47;77.49
46448;BME280;32145;50.390;30.778;2022-11-15T01:35:09;100866.84;;;3.48;77.37
46448;BME280;32145;50.390;30.778;2022-11-15T01:37:53;100869.53;;;3.48;77.66
46448;BME280;32145;50.390;30.778;2022-11-15T01:40:37;100863.50;;;3.46;77.43
46448;BME280;32145;50.390;30.778;2022-11-15T01:43:23;100865.47;;;3.44;77.22
46448;BME280;32145;50.390;30.778;2022-11-15T01:46:21;100857.28;;;3.46;77.35
46448;BME280;32145;50.390;30.778;2022-11-15T01:49:11;100855.09;;;3.41;77.38
46448;BME280;32145;50.390;30.778;2022-11-15T01:51:57;100858.09;;;3.38;77.14
46448;BME280;32145;50.390;30.778;2022-11-15T01:54:42;100853.72;;;3.37;77.51
46448;BME280;32145;50.390;30.778;2022-11-15T01:57:27;100851.91;;;3.38;77.79
46448;BME280;32145;50.390;30.778;2022-11-15T02:00:13;100849.84;;;3.31;77.56
46448;BME280;32145;50.390;30.778;2022-11-15T02:02:59;100853.69;;;3.29;77.67
46448;BME280;32145;50.390;30.778;2022-11-15T02:05:43;100841.97;;;3.30;77.78
46448;BME280;32145;50.390;30.778;2022-11-15T02:08:28;100847.69;;;3.27;77.63
46448;BME280;32145;50.390;30.778;2022-11-15T02:11:13;100836.97;;;3.27;78.01
46448;BME280;32145;50.390;30.778;2022-11-15T02:13:58;100842.63;;;3.24;77.67
46448;BME280;32145;50.390;30.778;2022-11-15T02:16:47;100839.25;;;3.21;77.65
46448;BME280;32145;50.390;30.778;2022-11-15T02:23:09;100840.63;;;3.26;77.83
46448;BME280;32145;50.390;30.778;2022-11-15T02:26:14;100827.06;;;3.27;77.73
46448;BME280;32145;50.390;30.778;2022-11-15T02:29:03;100829.22;;;3.24;77.58
46448;BME280;32145;50.390;30.778;2022-11-15T02:31:55;100822.84;;;3.25;77.58
46448;BME280;32145;50.390;30.778;2022-11-15T02:34:48;100819.16;;;3.26;77.89
46448;BME280;32145;50.390;30.778;2022-11-15T02:37:40;100818.69;;;3.30;77.84
46448;BME280;32145;50.390;30.778;2022-11-15T02:40:34;100822.22;;;3.31;78.04
46448;BME280;32145;50.390;30.778;2022-11-15T02:43:25;100818.53;;;3.32;78.06
46448;BME280;32145;50.390;30.778;2022-11-15T02:46:15;100815.84;;;3.32;77.50
46448;BME280;32145;50.390;30.778;2022-11-15T02:49:03;100808.13;;;3.29;77.83
46448;BME280;32145;50.390;30.778;2022-11-15T02:51:48;100806.47;;;3.28;77.82
46448;BME280;32145;50.390;30.778;2022-11-15T02:54:33;100810.97;;;3.27;77.81
46448;BME280;32145;50.390;30.778;2022-11-15T02:57:23;100808.13;;;3.29;77.91
46448;BME280;32145;50.390;30.778;2022-11-15T03:00:15;100802.94;;;3.27;77.71
46448;BME280;32145;50.390;30.778;2022-11-15T03:03:16;100799.44;;;3.27;77.72
46448;BME280;32145;50.390;30.778;2022-11-15T03:06:19;100796.41;;;3.30;78.03
46448;BME280;32145;50.390;30.778;2022-11-15T03:09:07;100792.38;;;3.26;77.54
46448;BME280;32145;50.390;30.778;2022-11-15T03:11:56;100791.41;;;3.27;77.78
46448;BME280;32145;50.390;30.778;2022-11-15T03:14:43;100781.84;;;3.24;77.48
46448;BME280;32145;50.390;30.778;2022-11-15T03:17:36;100782.63;;;3.16;77.76
46448;BME280;32145;50.390;30.778;2022-11-15T03:20:23;100784.66;;;3.14;77.25
46448;BME280;32145;50.390;30.778;2022-11-15T03:23:11;100778.28;;;3.15;77.80
46448;BME280;32145;50.390;30.778;2022-11-15T03:25:57;100771.91;;;3.16;77.87
46448;BME280;32145;50.390;30.778;2022-11-15T03:28:45;100772.06;;;3.15;77.68
46448;BME280;32145;50.390;30.778;2022-11-15T03:31:34;100769.72;;;3.12;77.82
46448;BME280;32145;50.390;30.778;2022-11-15T03:34:26;100769.41;;;3.15;77.83
46448;BME280;32145;50.390;30.778;2022-11-15T03:37:13;100761.88;;;3.18;77.88
46448;BME280;32145;50.390;30.778;2022-11-15T03:40:00;100767.06;;;3.20;77.45
46448;BME280;32145;50.390;30.778;2022-11-15T03:42:48;100759.72;;;3.22;77.36
46448;BME280;32145;50.390;30.778;2022-11-15T03:45:43;100754.34;;;3.22;77.70
46448;BME280;32145;50.390;30.778;2022-11-15T03:48:32;100745.31;;;3.23;77.78
46448;BME280;32145;50.390;30.778;2022-11-15T03:51:17;100742.78;;;3.21;77.39
46448;BME280;32145;50.390;30.778;2022-11-15T03:54:03;100739.94;;;3.23;77.83
46448;BME280;32145;50.390;30.778;2022-11-15T03:56:49;100740.78;;;3.24;77.52
46448;BME280;32145;50.390;30.778;2022-11-15T03:59:33;100733.06;;;3.20;77.81
46448;BME280;32145;50.390;30.778;2022-11-15T04:02:17;100736.94;;;3.18;77.59
46448;BME280;32145;50.390;30.778;2022-11-15T04:05:01;100734.72;;;3.13;77.84
46448;BME280;32145;50.390;30.778;2022-11-15T04:07:45;100736.44;;;3.14;77.84
46448;BME280;32145;50.390;30.778;2022-11-15T04:10:29;100716.66;;;3.15;77.83
46448;BME280;32145;50.390;30.778;2022-11-15T04:13:14;100714.63;;;3.17;77.77
46448;BME280;32145;50.390;30.778;2022-11-15T04:15:58;100709.94;;;3.11;77.73
46448;BME280;32145;50.390;30.778;2022-11-15T04:18:42;100714.47;;;3.11;78.01
46448;BME280;32145;50.390;30.778;2022-11-15T04:21:26;100718.00;;;3.11;77.92
46448;BME280;32145;50.390;30.778;2022-11-15T04:24:10;100714.63;;;3.09;77.92
46448;BME280;32145;50.390;30.778;2022-11-15T04:26:54;100714.13;;;3.14;77.81
46448;BME280;32145;50.390;30.778;2022-11-15T04:29:39;100708.47;;;3.17;77.87
46448;BME280;32145;50.390;30.778;2022-11-15T04:32:23;100709.94;;;3.11;77.96
46448;BME280;32145;50.390;30.778;2022-11-15T04:35:08;100695.38;;;3.05;77.65
46448;BME280;32145;50.390;30.778;2022-11-15T04:37:52;100700.06;;;3.12;77.49
46448;BME280;32145;50.390;30.778;2022-11-15T04:40:37;100695.53;;;3.12;77.65
46448;BME280;32145;50.390;30.778;2022-11-15T04:43:22;100694.22;;;3.16;77.85
46448;BME280;32145;50.390;30.778;2022-11-15T04:46:07;100690.19;;;3.12;77.45
46448;BME280;32145;50.390;30.778;2022-11-15T04:48:51;100694.84;;;3.10;77.62
46448;BME280;32145;50.390;30.778;2022-11-15T04:51:35;100689.84;;;3.07;77.63
46448;BME280;32145;50.390;30.778;2022-11-15T04:54:19;100687.16;;;3.07;77.60
46448;BME280;32145;50.390;30.778;2022-11-15T04:57:03;100683.13;;;3.03;77.66
46448;BME280;32145;50.390;30.778;2022-11-15T04:59:47;100683.81;;;3.05;77.58
46448;BME280;32145;50.390;30.778;2022-11-15T05:02:33;100685.16;;;3.09;77.72
46448;BME280;32145;50.390;30.778;2022-11-15T05:05:17;100679.13;;;2.99;77.83
46448;BME280;32145;50.390;30.778;2022-11-15T05:08:01;100676.44;;;2.99;77.82
46448;BME280;32145;50.390;30.778;2022-11-15T05:10:46;100673.78;;;3.07;77.93
46448;BME280;32145;50.390;30.778;2022-11-15T05:13:31;100668.91;;;3.11;78.16
46448;BME280;32145;50.390;30.778;2022-11-15T05:16:15;100672.75;;;3.08;77.86
46448;BME280;32145;50.390;30.778;2022-11-15T05:19:01;100664.72;;;3.08;77.82
46448;BME280;32145;50.390;30.778;2022-11-15T05:21:45;100673.41;;;3.10;77.77
46448;BME280;32145;50.390;30.778;2022-11-15T05:24:30;100662.03;;;3.08;77.89
46448;BME280;32145;50.390;30.778;2022-11-15T05:27:14;100671.09;;;3.07;77.73
46448;BME280;32145;50.390;30.778;2022-11-15T05:29:58;100662.53;;;3.12;77.69
46448;BME280;32145;50.390;30.778;2022-11-15T05:32:42;100666.75;;;3.14;77.48
46448;BME280;32145;50.390;30.778;2022-11-15T05:35:30;100656.53;;;3.18;77.37
46448;BME280;32145;50.390;30.778;2022-11-15T05:38:15;100661.25;;;3.24;77.58
46448;BME280;32145;50.390;30.778;2022-11-15T05:41:00;100664.25;;;3.21;77.42
46448;BME280;32145;50.390;30.778;2022-11-15T05:43:45;100662.91;;;3.25;77.42
46448;BME280;32145;50.390;30.778;2022-11-15T05:46:30;100657.03;;;3.30;77.44
46448;BME280;32145;50.390;30.778;2022-11-15T05:49:17;100649.34;;;3.27;77.08
46448;BME280;32145;50.390;30.778;2022-11-15T05:52:05;100645.97;;;3.25;77.37
46448;BME280;32145;50.390;30.778;2022-11-15T05:54:51;100652.03;;;3.18;77.76
46448;BME280;32145;50.390;30.778;2022-11-15T05:57:36;100653.66;;;3.03;77.82
46448;BME280;32145;50.390;30.778;2022-11-15T06:00:21;100650.16;;;3.11;77.88
46448;BME280;32145;50.390;30.778;2022-11-15T06:03:05;100642.66;;;3.14;77.93
46448;BME280;32145;50.390;30.778;2022-11-15T06:05:49;100632.59;;;3.16;77.64
46448;BME280;32145;50.390;30.778;2022-11-15T06:08:34;100632.91;;;3.13;77.58
46448;BME280;32145;50.390;30.778;2022-11-15T06:11:18;100631.72;;;3.07;78.17
46448;BME280;32145;50.390;30.778;2022-11-15T06:14:02;100624.53;;;3.08;78.38
46448;BME280;32145;50.390;30.778;2022-11-15T06:16:47;100632.25;;;3.03;78.18
46448;BME280;32145;50.390;30.778;2022-11-15T06:19:31;100629.22;;;3.06;78.41
46448;BME280;32145;50.390;30.778;2022-11-15T06:22:15;100628.22;;;3.07;78.54
46448;BME280;32145;50.390;30.778;2022-11-15T06:25:00;100631.25;;;3.12;78.12
46448;BME280;32145;50.390;30.778;2022-11-15T06:27:51;100622.19;;;3.13;78.00
46448;BME280;32145;50.390;30.778;2022-11-15T06:30:35;100623.53;;;3.17;77.79
46448;BME280;32145;50.390;30.778;2022-11-15T06:33:19;100618.69;;;3.21;77.72
46448;BME280;32145;50.390;30.778;2022-11-15T06:36:04;100619.88;;;3.27;77.84
46448;BME280;32145;50.390;30.778;2022-11-15T06:38:48;100620.19;;;3.32;77.35
46448;BME280;32145;50.390;30.778;2022-11-15T06:41:35;100623.19;;;3.37;77.54
46448;BME280;32145;50.390;30.778;2022-11-15T06:44:19;100625.72;;;3.39;77.38
46448;BME280;32145;50.390;30.778;2022-11-15T06:47:03;100620.88;;;3.34;77.32
46448;BME280;32145;50.390;30.778;2022-11-15T06:49:47;100619.88;;;3.35;77.25
46448;BME280;32145;50.390;30.778;2022-11-15T06:52:32;100616.84;;;3.21;77.26
46448;BME280;32145;50.390;30.778;2022-11-15T06:55:16;100621.38;;;3.21;77.13
46448;BME280;32145;50.390;30.778;2022-11-15T06:58:01;100616.19;;;3.19;76.97
46448;BME280;32145;50.390;30.778;2022-11-15T07:00:45;100617.00;;;3.20;77.46
46448;BME280;32145;50.390;30.778;2022-11-15T07:03:29;100612.16;;;3.24;77.27
46448;BME280;32145;50.390;30.778;2022-11-15T07:06:14;100611.16;;;3.25;77.12
46448;BME280;32145;50.390;30.778;2022-11-15T07:08:58;100614.84;;;3.24;76.86
46448;BME280;32145;50.390;30.778;2022-11-15T07:11:42;100617.84;;;3.29;77.11
46448;BME280;32145;50.390;30.778;2022-11-15T07:14:27;100611.16;;;3.33;76.87
46448;BME280;32145;50.390;30.778;2022-11-15T07:17:11;100607.47;;;3.34;76.95
46448;BME280;32145;50.390;30.778;2022-11-15T07:19:55;100608.97;;;3.37;77.05
46448;BME280;32145;50.390;30.778;2022-11-15T07:22:39;100604.97;;;3.32;77.13
46448;BME280;32145;50.390;30.778;2022-11-15T07:25:23;100603.28;;;3.31;77.13
46448;BME280;32145;50.390;30.778;2022-11-15T07:28:07;100600.44;;;3.33;76.98
46448;BME280;32145;50.390;30.778;2022-11-15T07:30:52;100597.75;;;3.41;77.19
46448;BME280;32145;50.390;30.778;2022-11-15T07:33:37;100597.09;;;3.31;76.83
46448;BME280;32145;50.390;30.778;2022-11-15T07:36:21;100589.06;;;3.31;77.16
46448;BME280;32145;50.390;30.778;2022-11-15T07:39:05;100576.97;;;3.35;77.13
46448;BME280;32145;50.390;30.778;2022-11-15T07:41:49;100579.66;;;3.27;76.87
46448;BME280;32145;50.390;30.778;2022-11-15T07:44:33;100574.97;;;3.37;76.73
46448;BME280;32145;50.390;30.778;2022-11-15T07:47:18;100574.97;;;3.29;76.83
46448;BME280;32145;50.390;30.778;2022-11-15T07:50:03;100566.09;;;3.28;76.71
46448;BME280;32145;50.390;30.778;2022-11-15T07:52:47;100565.75;;;3.31;77.16
46448;BME280;32145;50.390;30.778;2022-11-15T07:55:31;100560.38;;;3.40;77.20
46448;BME280;32145;50.390;30.778;2022-11-15T07:58:15;100565.75;;;3.48;76.90
46448;BME280;32145;50.390;30.778;2022-11-15T08:01:02;100559.03;;;3.60;76.79
46448;BME280;32145;50.390;30.778;2022-11-15T08:03:48;100554.84;;;3.58;76.67
46448;BME280;32145;50.390;30.778;2022-11-15T08:06:32;100543.94;;;3.59;76.44
46448;BME280;32145;50.390;30.778;2022-11-15T08:09:16;100536.06;;;3.66;76.52
46448;BME280;32145;50.390;30.778;2022-11-15T08:12:00;100537.38;;;3.70;76.14
46448;BME280;32145;50.390;30.778;2022-11-15T08:14:44;100535.34;;;3.72;76.44
46448;BME280;32145;50.390;30.778;2022-11-15T08:17:28;100531.66;;;3.73;76.16
46448;BME280;32145;50.390;30.778;2022-11-15T08:20:14;100528.97;;;3.73;76.18
46448;BME280;32145;50.390;30.778;2022-11-15T08:22:59;100523.94;;;3.79;75.91
46448;BME280;32145;50.390;30.778;2022-11-15T08:25:43;100520.72;;;3.83;75.84
46448;BME280;32145;50.390;30.778;2022-11-15T08:28:27;100515.88;;;3.87;75.91
46448;BME280;32145;50.390;30.778;2022-11-15T08:31:14;100526.94;;;3.84;75.96
46448;BME280;32145;50.390;30.778;2022-11-15T08:33:59;100524.44;;;3.82;75.75
46448;BME280;32145;50.390;30.778;2022-11-15T08:36:45;100520.94;;;3.73;76.20
46448;BME280;32145;50.390;30.778;2022-11-15T08:39:29;100513.59;;;3.67;76.03
46448;BME280;32145;50.390;30.778;2022-11-15T08:42:13;100498.34;;;3.59;76.34
46448;BME280;32145;50.390;30.778;2022-11-15T08:44:57;100505.53;;;3.67;76.37
46448;BME280;32145;50.390;30.778;2022-11-15T08:47:41;100512.91;;;3.65;76.18
46448;BME280;32145;50.390;30.778;2022-11-15T08:50:25;100503.38;;;3.63;76.05
46448;BME280;32145;50.390;30.778;2022-11-15T08:53:10;100506.22;;;3.61;75.94
46448;BME280;32145;50.390;30.778;2022-11-15T08:55:55;100503.50;;;3.69;75.92
46448;BME280;32145;50.390;30.778;2022-11-15T08:58:39;100502.72;;;3.60;75.54
46448;BME280;32145;50.390;30.778;2022-11-15T09:01:23;100503.06;;;3.57;75.25
46448;BME280;32145;50.390;30.778;2022-11-15T09:04:07;100510.94;;;3.59;74.89
46448;BME280;32145;50.390;30.778;2022-11-15T09:06:51;100488.16;;;3.55;74.65
46448;BME280;32145;50.390;30.778;2022-11-15T09:09:36;100514.31;;;3.44;74.03
46448;BME280;32145;50.390;30.778;2022-11-15T09:12:21;100492.88;;;3.36;74.34
46448;BME280;32145;50.390;30.778;2022-11-15T09:15:06;100483.81;;;3.37;74.30
46448;BME280;32145;50.390;30.778;2022-11-15T09:17:50;100480.16;;;3.38;74.78
46448;BME280;32145;50.390;30.778;2022-11-15T09:20:34;100474.06;;;3.53;74.38
46448;BME280;32145;50.390;30.778;2022-11-15T09:23:18;100472.75;;;3.48;74.27
46448;BME280;32145;50.390;30.778;2022-11-15T09:26:04;100477.09;;;3.50;74.50
46448;BME280;32145;50.390;30.778;2022-11-15T09:28:49;100463.22;;;3.38;74.83
46448;BME280;32145;50.390;30.778;2022-11-15T09:31:33;100458.03;;;3.36;74.53
46448;BME280;32145;50.390;30.778;2022-11-15T09:34:17;100454.38;;;3.29;74.53
46448;BME280;32145;50.390;30.778;2022-11-15T09:37:01;100445.66;;;3.35;75.01
46448;BME280;32145;50.390;30.778;2022-11-15T09:39:45;100455.66;;;3.41;75.15
46448;BME280;32145;50.390;30.778;2022-11-15T09:42:41;100442.59;;;3.46;74.94
46448;BME280;32145;50.390;30.778;2022-11-15T09:45:34;100441.25;;;3.51;74.76
46448;BME280;32145;50.390;30.778;2022-11-15T09:48:35;100422.16;;;3.45;74.23
46448;BME280;32145;50.390;30.778;2022-11-15T09:51:29;100424.34;;;3.42;74.29
46448;BME280;32145;50.390;30.778;2022-11-15T09:54:22;100420.00;;;3.41;74.41
46448;BME280;32145;50.390;30.778;2022-11-15T09:57:11;100410.47;;;3.38;74.34
46448;BME280;32145;50.390;30.778;2022-11-15T10:00:06;100404.72;;;3.50;74.53
46448;BME280;32145;50.390;30.778;2022-11-15T10:03:11;100392.63;;;3.54;74.27
46448;BME280;32145;50.390;30.778;2022-11-15T10:05:59;100400.66;;;3.62;74.38
46448;BME280;32145;50.390;30.778;2022-11-15T10:08:55;100391.94;;;3.60;73.95
46448;BME280;32145;50.390;30.778;2022-11-15T10:11:41;100389.94;;;3.62;74.26
46448;BME280;32145;50.390;30.778;2022-11-15T10:14:28;100381.88;;;3.62;73.96
46448;BME280;32145;50.390;30.778;2022-11-15T10:17:25;100388.25;;;3.61;74.09
46448;BME280;32145;50.390;30.778;2022-11-15T10:20:17;100378.56;;;3.52;74.14
46448;BME280;32145;50.390;30.778;2022-11-15T10:23:06;100373.84;;;3.54;74.46
46448;BME280;32145;50.390;30.778;2022-11-15T10:25:51;100370.50;;;3.60;74.42
46448;BME280;32145;50.390;30.778;2022-11-15T10:28:36;100366.09;;;3.67;74.47
46448;BME280;32145;50.390;30.778;2022-11-15T10:31:23;100357.00;;;3.77;74.14
46448;BME280;32145;50.390;30.778;2022-11-15T10:34:13;100352.47;;;3.77;73.92
46448;BME280;32145;50.390;30.778;2022-11-15T10:37:00;100343.56;;;3.77;73.81
46448;BME280;32145;50.390;30.778;2022-11-15T10:39:44;100334.50;;;3.86;73.87
46448;BME280;32145;50.390;30.778;2022-11-15T10:42:46;100330.09;;;3.85;73.87
46448;BME280;32145;50.390;30.778;2022-11-15T10:45:33;100329.41;;;3.91;73.81
46448;BME280;32145;50.390;30.778;2022-11-15T10:48:24;100319.28;;;4.02;73.72
46448;BME280;32145;50.390;30.778;2022-11-15T10:51:20;100313.53;;;4.05;73.70
46448;BME280;32145;50.390;30.778;2022-11-15T10:54:09;100310.94;;;3.96;73.89
46448;BME280;32145;50.390;30.778;2022-11-15T10:56:56;100303.19;;;4.02;73.80
46448;BME280;32145;50.390;30.778;2022-11-15T10:59:46;100297.09;;;4.08;73.64
46448;BME280;32145;50.390;30.778;2022-11-15T11:02:33;100294.69;;;4.13;73.64
46448;BME280;32145;50.390;30.778;2022-11-15T11:05:26;100286.72;;;4.05;73.43
46448;BME280;32145;50.390;30.778;2022-11-15T11:08:23;100288.41;;;4.06;73.82
46448;BME280;32145;50.390;30.778;2022-11-15T11:11:07;100274.91;;;4.14;73.92
46448;BME280;32145;50.390;30.778;2022-11-15T11:13:52;100268.53;;;4.15;73.62
46448;BME280;32145;50.390;30.778;2022-11-15T11:16:44;100256.75;;;4.16;73.61
46448;BME280;32145;50.390;30.778;2022-11-15T11:19:55;100257.03;;;4.21;73.78
46448;BME280;32145;50.390;30.778;2022-11-15T11:23:03;100245.78;;;4.26;73.51
46448;BME280;32145;50.390;30.778;2022-11-15T11:25:52;100236.59;;;4.20;73.58
46448;BME280;32145;50.390;30.778;2022-11-15T11:28:45;100231.06;;;4.22;73.53
46448;BME280;32145;50.390;30.778;2022-11-15T11:31:46;100225.50;;;4.23;73.52
46448;BME280;32145;50.390;30.778;2022-11-15T11:34:44;100215.34;;;4.34;73.55
46448;BME280;32145;50.390;30.778;2022-11-15T11:37:36;100223.66;;;4.39;73.60
46448;BME280;32145;50.390;30.778;2022-11-15T11:40:29;100214.13;;;4.36;73.40
46448;BME280;32145;50.390;30.778;2022-11-15T11:43:22;100206.53;;;4.40;73.53
46448;BME280;32145;50.390;30.778;2022-11-15T11:46:30;100203.13;;;4.46;73.45
46448;BME280;32145;50.390;30.778;2022-11-15T11:49:18;100204.41;;;4.50;73.39
46448;BME280;32145;50.390;30.778;2022-11-15T11:52:07;100198.03;;;4.51;73.11
46448;BME280;32145;50.390;30.778;2022-11-15T11:55:02;100194.31;;;4.53;73.32
46448;BME280;32145;50.390;30.778;2022-11-15T11:57:53;100186.44;;;4.51;73.20
46448;BME280;32145;50.390;30.778;2022-11-15T12:00:47;100180.06;;;4.52;73.28
46448;BME280;32145;50.390;30.778;2022-11-15T12:03:39;100178.88;;;4.55;73.22
46448;BME280;32145;50.390;30.778;2022-11-15T12:06:33;100172.84;;;4.53;73.29
46448;BME280;32145;50.390;30.778;2022-11-15T12:09:21;100169.34;;;4.52;73.42
46448;BME280;32145;50.390;30.778;2022-11-15T12:12:09;100164.78;;;4.53;73.37
46448;BME280;32145;50.390;30.778;2022-11-15T12:14:57;100166.84;;;4.50;73.44
46448;BME280;32145;50.390;30.778;2022-11-15T12:17:46;100152.75;;;4.48;73.46
46448;BME280;32145;50.390;30.778;2022-11-15T12:20:34;100159.81;;;4.49;73.64
46448;BME280;32145;50.390;30.778;2022-11-15T12:23:23;100147.00;;;4.51;73.53
46448;BME280;32145;50.390;30.778;2022-11-15T12:26:11;100140.44;;;4.54;73.53
46448;BME280;32145;50.390;30.778;2022-11-15T12:29:00;100143.28;;;4.53;73.55
46448;BME280;32145;50.390;30.778;2022-11-15T12:31:48;100127.38;;;4.51;73.86
46448;BME280;32145;50.390;30.778;2022-11-15T12:34:45;100130.91;;;4.51;73.56
46448;BME280;32145;50.390;30.778;2022-11-15T12:40:37;100112.88;;;4.45;73.91
46448;BME280;32145;50.390;30.778;2022-11-15T12:46:22;100106.91;;;4.50;73.83
46448;BME280;32145;50.390;30.778;2022-11-15T12:49:09;100104.91;;;4.52;73.83
46448;BME280;32145;50.390;30.778;2022-11-15T12:52:07;100106.19;;;4.56;73.86
46448;BME280;32145;50.390;30.778;2022-11-15T12:58:27;100096.06;;;4.58;74.34
46448;BME280;32145;50.390;30.778;2022-11-15T13:01:57;100096.91;;;4.59;73.66
46448;BME280;32145;50.390;30.778;2022-11-15T13:04:41;100094.03;;;4.60;73.93
46448;BME280;32145;50.390;30.778;2022-11-15T13:07:57;100091.44;;;4.67;74.26
46448;BME280;32145;50.390;30.778;2022-11-15T13:10:41;100083.56;;;4.66;73.92
46448;BME280;32145;50.390;30.778;2022-11-15T13:13:43;100083.19;;;4.69;73.87
46448;BME280;32145;50.390;30.778;2022-11-15T13:16:28;100081.34;;;4.69;73.92
46448;BME280;32145;50.390;30.778;2022-11-15T13:19:14;100079.94;;;4.73;73.82
46448;BME280;32145;50.390;30.778;2022-11-15T13:21:58;100078.53;;;4.77;73.71
46448;BME280;32145;50.390;30.778;2022-11-15T13:24:44;100076.28;;;4.81;73.81
46448;BME280;32145;50.390;30.778;2022-11-15T13:27:28;100077.94;;;4.82;73.90
46448;BME280;32145;50.390;30.778;2022-11-15T13:30:19;100068.88;;;4.83;73.72
46448;BME280;32145;50.390;30.778;2022-11-15T13:33:08;100072.56;;;4.82;74.13
46448;BME280;32145;50.390;30.778;2022-11-15T13:35:55;100064.69;;;4.81;74.02
46448;BME280;32145;50.390;30.778;2022-11-15T13:38:41;100058.69;;;4.79;74.15
46448;BME280;32145;50.390;30.778;2022-11-15T13:41:28;100060.34;;;4.80;73.87
46448;BME280;32145;50.390;30.778;2022-11-15T13:44:19;100049.63;;;4.80;73.96
46448;BME280;32145;50.390;30.778;2022-11-15T13:47:06;100046.94;;;4.80;74.16
46448;BME280;32145;50.390;30.778;2022-11-15T13:49:50;100036.19;;;4.80;73.96
46448;BME280;32145;50.390;30.778;2022-11-15T13:52:36;100036.19;;;4.80;74.10
46448;BME280;32145;50.390;30.778;2022-11-15T13:55:22;100040.28;;;4.75;74.34
46448;BME280;32145;50.390;30.778;2022-11-15T13:58:09;100036.56;;;4.76;74.38
46448;BME280;32145;50.390;30.778;2022-11-15T14:00:59;100034.91;;;4.75;74.42
46448;BME280;32145;50.390;30.778;2022-11-15T14:03:49;100028.06;;;4.73;74.34
46448;BME280;32145;50.390;30.778;2022-11-15T14:06:44;100022.50;;;4.74;74.47
46448;BME280;32145;50.390;30.778;2022-11-15T14:09:32;100013.78;;;4.72;74.48
46448;BME280;32145;50.390;30.778;2022-11-15T14:12:27;100012.78;;;4.73;74.77
46448;BME280;32145;50.390;30.778;2022-11-15T14:15:26;100008.41;;;4.72;74.94
46448;BME280;32145;50.390;30.778;2022-11-15T14:18:41;100006.38;;;4.74;75.15
46448;BME280;32145;50.390;30.778;2022-11-15T14:21:25;99998.53;;;4.73;74.77
46448;BME280;32145;50.390;30.778;2022-11-15T14:24:15;99984.06;;;4.74;75.13
46448;BME280;32145;50.390;30.778;2022-11-15T14:27:18;99989.25;;;4.75;75.03
46448;BME280;32145;50.390;30.778;2022-11-15T14:30:03;99984.91;;;4.74;74.89
46448;BME280;32145;50.390;30.778;2022-11-15T17:24:55;99793.91;;;4.98;79.26
46448;BME280;32145;50.390;30.778;2022-11-15T17:27:42;99792.28;;;5.03;78.73
46448;BME280;32145;50.390;30.778;2022-11-15T17:30:25;99789.22;;;5.07;78.39
46448;BME280;32145;50.390;30.778;2022-11-15T17:33:10;99777.44;;;5.08;78.15
46448;BME280;32145;50.390;30.778;2022-11-15T17:35:55;99784.25;;;5.10;78.17
46448;BME280;32145;50.390;30.778;2022-11-15T17:38:40;99781.38;;;5.12;78.26
46448;BME280;32145;50.390;30.778;2022-11-15T17:41:26;99782.19;;;5.06;77.90